TimeEDT,TemperatureF,Dew PointF,Humidity,Sea Level PressureIn,VisibilityMPH,Wind Direction,Wind SpeedMPH,Gust SpeedMPH,PrecipitationIn,Events,Conditions,WindDirDegrees,DateUTC
12:53 AM,34.0,21.0,59,29.98,10.0,NNE,4.6,-,N/A,,Clear,20,2013-03-24 04:53:00
1:53 AM,33.1,21.9,64,29.96,10.0,Calm,Calm,-,N/A,,Clear,0,2013-03-24 05:53:00
2:53 AM,32.0,21.0,64,29.94,10.0,North,3.5,-,N/A,,Clear,360,2013-03-24 06:53:00
3:53 AM,30.9,21.0,67,29.95,10.0,NNW,3.5,-,N/A,,Clear,340,2013-03-24 07:53:00
4:53 AM,30.9,19.9,64,29.94,10.0,North,4.6,-,N/A,,Clear,10,2013-03-24 08:53:00
5:53 AM,30.0,19.9,66,29.91,10.0,Calm,Calm,-,N/A,,Clear,0,2013-03-24 09:53:00
6:53 AM,30.0,19.9,66,29.92,10.0,NNE,5.8,-,N/A,,Clear,20,2013-03-24 10:53:00
7:53 AM,30.0,19.9,66,29.91,10.0,North,4.6,-,N/A,,Clear,360,2013-03-24 11:53:00
8:53 AM,32.0,21.0,64,29.87,10.0,North,4.6,-,N/A,,Clear,10,2013-03-24 12:53:00
9:53 AM,36.0,19.9,52,29.84,10.0,Calm,Calm,-,N/A,,Clear,0,2013-03-24 13:53:00
10:53 AM,39.0,19.0,45,29.79,10.0,ENE,6.9,-,N/A,,Clear,60,2013-03-24 14:53:00
11:53 AM,41.0,18.0,40,29.76,10.0,ENE,8.1,-,N/A,,Clear,70,2013-03-24 15:53:00
12:53 PM,42.1,19.0,40,29.70,10.0,East,6.9,-,N/A,,Clear,80,2013-03-24 16:53:00
1:53 PM,43.0,18.0,37,29.68,10.0,East,8.1,-,N/A,,Scattered Clouds,80,2013-03-24 17:53:00
2:53 PM,43.0,19.9,40,29.67,10.0,SE,8.1,-,N/A,,Overcast,130,2013-03-24 18:53:00
3:53 PM,42.1,21.0,43,29.67,10.0,Variable,6.9,-,N/A,,Overcast,0,2013-03-24 19:53:00
4:26 PM,37.4,30.2,75,29.63,2.0,SSE,8.1,-,0.00,Snow,Light Snow,150,2013-03-24 20:26:00
4:53 PM,37.0,30.0,76,29.65,1.8,East,8.1,16.1,0.00,Snow,Light Snow,90,2013-03-24 20:53:00
5:18 PM,35.6,30.2,81,29.62,0.8,East,3.5,-,0.00,Snow,Light Snow,80,2013-03-24 21:18:00
5:53 PM,34.0,30.9,89,29.65,0.8,East,5.8,-,0.03,Snow,Light Snow,90,2013-03-24 21:53:00
6:01 PM,33.8,30.2,87,29.61,0.5,ENE,4.6,-,0.00,Fog-Snow,Light Snow,60,2013-03-24 22:01:00
6:17 PM,33.8,30.2,87,29.59,0.2,ENE,5.8,-,0.02,Fog-Snow,Light Snow,70,2013-03-24 22:17:00
6:26 PM,33.8,30.2,87,29.60,0.8,ENE,4.6,-,0.03,Snow,Light Snow,60,2013-03-24 22:26:00
6:39 PM,33.8,30.2,87,29.59,1.0,ENE,6.9,-,0.03,Snow,Light Snow,60,2013-03-24 22:39:00
6:53 PM,34.0,30.0,85,29.62,3.0,NE,3.5,-,0.03,Snow,Light Snow,50,2013-03-24 22:53:00
7:32 PM,33.8,28.4,81,29.55,8.0,East,10.4,-,0.00,Snow,Light Snow,80,2013-03-24 23:32:00
7:53 PM,35.1,28.9,78,29.57,10.0,East,9.2,17.3,0.00,,Overcast,90,2013-03-24 23:53:00
8:53 PM,36.0,27.0,70,29.56,10.0,Calm,Calm,-,N/A,,Overcast,0,2013-03-25 00:53:00
9:53 PM,35.1,28.0,76,29.53,6.0,Variable,5.8,-,0.00,Snow,Light Snow,0,2013-03-25 01:53:00
10:53 PM,36.0,28.0,73,29.49,6.0,Variable,4.6,21.9,0.01,Snow,Light Snow,0,2013-03-25 02:53:00
11:47 PM,35.6,28.4,75,29.50,2.5,Variable,4.6,-,0.01,Snow,Light Snow,0,2013-03-25 03:47:00
11:53 PM,35.1,28.9,78,29.52,2.0,Variable,4.6,-,0.01,Snow,Light Snow,0,2013-03-25 03:53:00